sensor_id;sensor_type;location;lat;lon;timestamp;temperature;humidity
17128;DHT22;8679;50.842;4.322;2023-11-19T00:02:08;13.90;99.90
17128;DHT22;8679;50.842;4.322;2023-11-19T00:04:37;13.90;99.90
17128;DHT22;8679;50.842;4.322;2023-11-19T00:07:05;14.00;99.90
17128;DHT22;8679;50.842;4.322;2023-11-19T00:09:33;13.90;99.90
17128;DHT22;8679;50.842;4.322;2023-11-19T00:12:02;13.90;99.90
17128;DHT22;8679;50.842;4.322;2023-11-19T00:14:28;13.90;99.90
17128;DHT22;8679;50.842;4.322;2023-11-19T00:16:54;13.90;99.90
17128;DHT22;8679;50.842;4.322;2023-11-19T00:19:20;14.00;99.90
17128;DHT22;8679;50.842;4.322;2023-11-19T00:21:46;14.00;99.90
17128;DHT22;8679;50.842;4.322;2023-11-19T00:24:12;14.00;99.90
17128;DHT22;8679;50.842;4.322;2023-11-19T00:26:38;14.00;99.90
17128;DHT22;8679;50.842;4.322;2023-11-19T00:29:04;13.90;99.90
17128;DHT22;8679;50.842;4.322;2023-11-19T00:31:32;14.00;99.90
17128;DHT22;8679;50.842;4.322;2023-11-19T00:33:57;14.10;99.90
17128;DHT22;8679;50.842;4.322;2023-11-19T00:36:23;14.10;99.90
17128;DHT22;8679;50.842;4.322;2023-11-19T00:38:49;14.10;99.90
17128;DHT22;8679;50.842;4.322;2023-11-19T00:41:15;14.00;99.90
17128;DHT22;8679;50.842;4.322;2023-11-19T00:43:44;14.10;99.90
17128;DHT22;8679;50.842;4.322;2023-11-19T00:46:10;14.10;99.90
17128;DHT22;8679;50.842;4.322;2023-11-19T00:48:41;14.10;99.90
17128;DHT22;8679;50.842;4.322;2023-11-19T00:51:07;14.10;99.90
17128;DHT22;8679;50.842;4.322;2023-11-19T00:53:33;14.10;99.90
17128;DHT22;8679;50.842;4.322;2023-11-19T00:56:00;14.20;99.90
17128;DHT22;8679;50.842;4.322;2023-11-19T00:58:25;14.10;99.90
17128;DHT22;8679;50.842;4.322;2023-11-19T01:00:51;14.10;99.90
17128;DHT22;8679;50.842;4.322;2023-11-19T01:03:17;14.10;99.90
17128;DHT22;8679;50.842;4.322;2023-11-19T01:05:42;14.20;99.90
17128;DHT22;8679;50.842;4.322;2023-11-19T01:08:10;14.10;99.90
17128;DHT22;8679;50.842;4.322;2023-11-19T01:10:37;14.20;99.90
17128;DHT22;8679;50.842;4.322;2023-11-19T01:13:03;14.20;99.90
17128;DHT22;8679;50.842;4.322;2023-11-19T01:15:32;14.10;99.90
17128;DHT22;8679;50.842;4.322;2023-11-19T01:17:57;14.10;99.90
17128;DHT22;8679;50.842;4.322;2023-11-19T01:20:23;14.10;99.90
17128;DHT22;8679;50.842;4.322;2023-11-19T01:22:50;14.20;99.90
17128;DHT22;8679;50.842;4.322;2023-11-19T01:25:16;14.10;99.90
17128;DHT22;8679;50.842;4.322;2023-11-19T01:27:42;14.10;99.90
17128;DHT22;8679;50.842;4.322;2023-11-19T01:30:08;14.10;99.90
17128;DHT22;8679;50.842;4.322;2023-11-19T01:32:39;14.10;99.90
17128;DHT22;8679;50.842;4.322;2023-11-19T01:35:05;14.10;99.90
17128;DHT22;8679;50.842;4.322;2023-11-19T01:37:31;14.10;99.90
17128;DHT22;8679;50.842;4.322;2023-11-19T01:39:58;14.10;99.90
17128;DHT22;8679;50.842;4.322;2023-11-19T01:42:23;14.10;99.90
17128;DHT22;8679;50.842;4.322;2023-11-19T01:44:58;14.00;99.90
17128;DHT22;8679;50.842;4.322;2023-11-19T01:47:25;14.10;99.90
17128;DHT22;8679;50.842;4.322;2023-11-19T01:49:51;14.10;99.90
17128;DHT22;8679;50.842;4.322;2023-11-19T01:52:18;14.00;99.90
17128;DHT22;8679;50.842;4.322;2023-11-19T01:54:44;14.10;99.90
17128;DHT22;8679;50.842;4.322;2023-11-19T01:57:10;14.00;99.90
17128;DHT22;8679;50.842;4.322;2023-11-19T01:59:37;14.10;99.90
17128;DHT22;8679;50.842;4.322;2023-11-19T02:02:05;14.00;99.90
17128;DHT22;8679;50.842;4.322;2023-11-19T02:04:31;14.00;99.90
17128;DHT22;8679;50.842;4.322;2023-11-19T02:06:58;13.90;99.90
17128;DHT22;8679;50.842;4.322;2023-11-19T02:09:24;14.00;99.90
17128;DHT22;8679;50.842;4.322;2023-11-19T02:11:50;13.90;99.90
17128;DHT22;8679;50.842;4.322;2023-11-19T02:14:17;13.90;99.90
17128;DHT22;8679;50.842;4.322;2023-11-19T02:16:43;13.90;99.90
17128;DHT22;8679;50.842;4.322;2023-11-19T02:19:09;13.90;99.90
17128;DHT22;8679;50.842;4.322;2023-11-19T02:21:37;13.80;99.90
17128;DHT22;8679;50.842;4.322;2023-11-19T02:24:06;13.80;99.90
17128;DHT22;8679;50.842;4.322;2023-11-19T02:26:52;13.80;99.90
17128;DHT22;8679;50.842;4.322;2023-11-19T02:29:22;13.80;99.90
17128;DHT22;8679;50.842;4.322;2023-11-19T02:31:47;13.80;99.90
17128;DHT22;8679;50.842;4.322;2023-11-19T02:34:13;13.80;99.90
17128;DHT22;8679;50.842;4.322;2023-11-19T02:36:39;13.80;99.90
17128;DHT22;8679;50.842;4.322;2023-11-19T02:39:07;13.80;99.90
17128;DHT22;8679;50.842;4.322;2023-11-19T02:41:36;13.70;99.90
17128;DHT22;8679;50.842;4.322;2023-11-19T02:44:02;13.70;99.90
17128;DHT22;8679;50.842;4.322;2023-11-19T02:46:28;13.70;99.90
17128;DHT22;8679;50.842;4.322;2023-11-19T02:48:54;13.70;99.90
17128;DHT22;8679;50.842;4.322;2023-11-19T02:51:20;13.70;99.90
17128;DHT22;8679;50.842;4.322;2023-11-19T02:53:45;13.70;99.90
17128;DHT22;8679;50.842;4.322;2023-11-19T02:56:14;13.70;99.90
17128;DHT22;8679;50.842;4.322;2023-11-19T02:58:51;13.70;99.90
17128;DHT22;8679;50.842;4.322;2023-11-19T03:01:25;13.70;99.90
17128;DHT22;8679;50.842;4.322;2023-11-19T03:04:00;13.70;99.90
17128;DHT22;8679;50.842;4.322;2023-11-19T03:06:26;13.60;99.90
17128;DHT22;8679;50.842;4.322;2023-11-19T03:08:52;13.60;99.90
17128;DHT22;8679;50.842;4.322;2023-11-19T03:11:18;13.60;99.90
17128;DHT22;8679;50.842;4.322;2023-11-19T03:13:44;13.50;99.90
17128;DHT22;8679;50.842;4.322;2023-11-19T03:16:09;13.50;99.90
17128;DHT22;8679;50.842;4.322;2023-11-19T03:18:37;13.50;99.90
17128;DHT22;8679;50.842;4.322;2023-11-19T03:21:05;13.60;99.90
17128;DHT22;8679;50.842;4.322;2023-11-19T03:23:31;13.50;99.90
17128;DHT22;8679;50.842;4.322;2023-11-19T03:25:57;13.40;99.90
17128;DHT22;8679;50.842;4.322;2023-11-19T03:28:22;13.40;99.90
17128;DHT22;8679;50.842;4.322;2023-11-19T03:30:48;13.40;99.90
17128;DHT22;8679;50.842;4.322;2023-11-19T03:33:14;13.20;99.90
17128;DHT22;8679;50.842;4.322;2023-11-19T03:35:39;13.30;99.90
17128;DHT22;8679;50.842;4.322;2023-11-19T03:38:06;13.20;99.90
17128;DHT22;8679;50.842;4.322;2023-11-19T03:40:32;13.20;99.90
17128;DHT22;8679;50.842;4.322;2023-11-19T03:42:58;13.10;99.90
17128;DHT22;8679;50.842;4.322;2023-11-19T03:45:24;13.10;99.90
17128;DHT22;8679;50.842;4.322;2023-11-19T03:47:50;13.10;99.90
17128;DHT22;8679;50.842;4.322;2023-11-19T03:50:16;13.10;99.90
17128;DHT22;8679;50.842;4.322;2023-11-19T03:52:43;13.10;99.90
17128;DHT22;8679;50.842;4.322;2023-11-19T03:55:09;13.10;99.90
17128;DHT22;8679;50.842;4.322;2023-11-19T03:57:35;13.00;99.90
17128;DHT22;8679;50.842;4.322;2023-11-19T04:00:01;12.90;99.90
17128;DHT22;8679;50.842;4.322;2023-11-19T04:02:33;12.90;99.90
17128;DHT22;8679;50.842;4.322;2023-11-19T04:04:59;13.00;99.90
17128;DHT22;8679;50.842;4.322;2023-11-19T04:07:24;13.00;99.90
17128;DHT22;8679;50.842;4.322;2023-11-19T04:09:50;13.10;99.90
17128;DHT22;8679;50.842;4.322;2023-11-19T04:12:16;12.90;99.90
17128;DHT22;8679;50.842;4.322;2023-11-19T04:14:42;13.00;99.90
17128;DHT22;8679;50.842;4.322;2023-11-19T04:17:07;12.90;99.90
17128;DHT22;8679;50.842;4.322;2023-11-19T04:19:33;12.90;99.90
17128;DHT22;8679;50.842;4.322;2023-11-19T04:21:59;12.90;99.90
17128;DHT22;8679;50.842;4.322;2023-11-19T04:24:24;12.80;99.90
17128;DHT22;8679;50.842;4.322;2023-11-19T04:26:50;12.90;99.90
17128;DHT22;8679;50.842;4.322;2023-11-19T04:29:16;12.90;99.90
17128;DHT22;8679;50.842;4.322;2023-11-19T04:31:43;12.80;99.90
17128;DHT22;8679;50.842;4.322;2023-11-19T04:34:09;12.90;99.90
17128;DHT22;8679;50.842;4.322;2023-11-19T04:36:36;12.90;99.90
17128;DHT22;8679;50.842;4.322;2023-11-19T04:39:03;12.90;99.90
17128;DHT22;8679;50.842;4.322;2023-11-19T04:41:46;12.90;99.90
17128;DHT22;8679;50.842;4.322;2023-11-19T04:44:12;12.90;99.90
17128;DHT22;8679;50.842;4.322;2023-11-19T04:46:38;12.90;99.90
17128;DHT22;8679;50.842;4.322;2023-11-19T04:49:04;13.00;99.90
17128;DHT22;8679;50.842;4.322;2023-11-19T04:51:30;12.90;99.90
17128;DHT22;8679;50.842;4.322;2023-11-19T04:53:55;12.90;99.90
17128;DHT22;8679;50.842;4.322;2023-11-19T04:56:21;12.90;99.90
17128;DHT22;8679;50.842;4.322;2023-11-19T04:58:48;12.90;99.90
17128;DHT22;8679;50.842;4.322;2023-11-19T05:01:14;13.00;99.90
17128;DHT22;8679;50.842;4.322;2023-11-19T05:03:43;13.00;99.90
17128;DHT22;8679;50.842;4.322;2023-11-19T05:06:09;13.00;99.90
17128;DHT22;8679;50.842;4.322;2023-11-19T05:08:35;12.90;99.90
17128;DHT22;8679;50.842;4.322;2023-11-19T05:11:01;12.90;99.90
17128;DHT22;8679;50.842;4.322;2023-11-19T05:13:26;12.90;99.90
17128;DHT22;8679;50.842;4.322;2023-11-19T05:15:52;12.70;99.90
17128;DHT22;8679;50.842;4.322;2023-11-19T05:18:18;12.70;99.90
17128;DHT22;8679;50.842;4.322;2023-11-19T05:20:45;12.70;99.90
17128;DHT22;8679;50.842;4.322;2023-11-19T05:23:10;12.70;99.90
17128;DHT22;8679;50.842;4.322;2023-11-19T05:25:36;12.60;99.90
17128;DHT22;8679;50.842;4.322;2023-11-19T05:28:02;12.60;99.90
17128;DHT22;8679;50.842;4.322;2023-11-19T05:30:28;12.60;99.90
17128;DHT22;8679;50.842;4.322;2023-11-19T05:32:53;12.50;99.90
17128;DHT22;8679;50.842;4.322;2023-11-19T05:35:19;12.50;99.90
17128;DHT22;8679;50.842;4.322;2023-11-19T05:37:45;12.60;99.90
17128;DHT22;8679;50.842;4.322;2023-11-19T05:40:10;12.60;99.90
17128;DHT22;8679;50.842;4.322;2023-11-19T05:42:43;12.60;99.90
17128;DHT22;8679;50.842;4.322;2023-11-19T05:45:11;12.70;99.90
17128;DHT22;8679;50.842;4.322;2023-11-19T05:47:37;12.80;99.90
17128;DHT22;8679;50.842;4.322;2023-11-19T05:50:02;12.80;99.90
17128;DHT22;8679;50.842;4.322;2023-11-19T05:52:29;12.80;99.90
17128;DHT22;8679;50.842;4.322;2023-11-19T05:55:00;12.80;99.90
17128;DHT22;8679;50.842;4.322;2023-11-19T05:57:28;12.70;99.90
17128;DHT22;8679;50.842;4.322;2023-11-19T05:59:54;12.70;99.90
17128;DHT22;8679;50.842;4.322;2023-11-19T06:02:20;12.60;99.90
17128;DHT22;8679;50.842;4.322;2023-11-19T06:04:46;12.50;99.90
17128;DHT22;8679;50.842;4.322;2023-11-19T06:07:13;12.40;99.90
17128;DHT22;8679;50.842;4.322;2023-11-19T06:09:40;12.40;99.90
17128;DHT22;8679;50.842;4.322;2023-11-19T06:12:07;12.40;99.90
17128;DHT22;8679;50.842;4.322;2023-11-19T06:14:33;12.30;99.90
17128;DHT22;8679;50.842;4.322;2023-11-19T06:16:58;12.30;99.90
17128;DHT22;8679;50.842;4.322;2023-11-19T06:19:25;12.30;99.90
17128;DHT22;8679;50.842;4.322;2023-11-19T06:21:50;12.20;99.90
17128;DHT22;8679;50.842;4.322;2023-11-19T06:24:16;12.20;99.90
17128;DHT22;8679;50.842;4.322;2023-11-19T06:26:42;12.20;99.90
17128;DHT22;8679;50.842;4.322;2023-11-19T06:29:08;12.20;99.90
17128;DHT22;8679;50.842;4.322;2023-11-19T06:31:33;12.20;99.90
17128;DHT22;8679;50.842;4.322;2023-11-19T06:33:59;12.10;99.90
17128;DHT22;8679;50.842;4.322;2023-11-19T06:36:25;12.10;99.90
17128;DHT22;8679;50.842;4.322;2023-11-19T06:38:52;12.10;99.90
17128;DHT22;8679;50.842;4.322;2023-11-19T06:41:17;12.10;99.90
17128;DHT22;8679;50.842;4.322;2023-11-19T06:43:43;12.10;99.90
17128;DHT22;8679;50.842;4.322;2023-11-19T06:46:18;12.10;99.90
17128;DHT22;8679;50.842;4.322;2023-11-19T06:48:44;12.00;99.90
17128;DHT22;8679;50.842;4.322;2023-11-19T06:51:11;12.00;99.90
17128;DHT22;8679;50.842;4.322;2023-11-19T06:53:37;11.90;99.90
17128;DHT22;8679;50.842;4.322;2023-11-19T06:56:03;12.00;99.90
17128;DHT22;8679;50.842;4.322;2023-11-19T06:58:35;12.00;99.90
17128;DHT22;8679;50.842;4.322;2023-11-19T07:01:01;12.00;99.90
17128;DHT22;8679;50.842;4.322;2023-11-19T07:03:27;12.10;99.90
17128;DHT22;8679;50.842;4.322;2023-11-19T07:05:52;12.00;99.90
17128;DHT22;8679;50.842;4.322;2023-11-19T07:08:18;12.00;99.90
17128;DHT22;8679;50.842;4.322;2023-11-19T07:10:43;12.00;99.90
17128;DHT22;8679;50.842;4.322;2023-11-19T07:13:09;12.00;99.90
17128;DHT22;8679;50.842;4.322;2023-11-19T07:15:35;12.00;99.90
17128;DHT22;8679;50.842;4.322;2023-11-19T07:18:00;12.10;99.90
17128;DHT22;8679;50.842;4.322;2023-11-19T07:20:26;12.00;99.90
17128;DHT22;8679;50.842;4.322;2023-11-19T07:22:53;12.10;99.90
17128;DHT22;8679;50.842;4.322;2023-11-19T07:25:20;12.00;99.90
17128;DHT22;8679;50.842;4.322;2023-11-19T07:27:46;12.00;99.90
17128;DHT22;8679;50.842;4.322;2023-11-19T07:30:13;12.10;99.90
17128;DHT22;8679;50.842;4.322;2023-11-19T07:32:39;12.10;99.90
17128;DHT22;8679;50.842;4.322;2023-11-19T07:35:05;12.00;99.90
17128;DHT22;8679;50.842;4.322;2023-11-19T07:37:31;12.00;99.90
17128;DHT22;8679;50.842;4.322;2023-11-19T07:39:57;12.00;99.90
17128;DHT22;8679;50.842;4.322;2023-11-19T07:42:24;12.20;99.90
17128;DHT22;8679;50.842;4.322;2023-11-19T07:44:50;12.00;99.90
17128;DHT22;8679;50.842;4.322;2023-11-19T07:47:16;12.00;99.90
17128;DHT22;8679;50.842;4.322;2023-11-19T07:49:41;12.00;99.90
17128;DHT22;8679;50.842;4.322;2023-11-19T07:52:09;12.00;99.90
17128;DHT22;8679;50.842;4.322;2023-11-19T07:54:35;12.10;99.90
17128;DHT22;8679;50.842;4.322;2023-11-19T07:57:00;12.00;99.90
17128;DHT22;8679;50.842;4.322;2023-11-19T07:59:26;12.10;99.90
17128;DHT22;8679;50.842;4.322;2023-11-19T08:01:52;12.10;99.90
17128;DHT22;8679;50.842;4.322;2023-11-19T08:04:18;12.10;99.90
17128;DHT22;8679;50.842;4.322;2023-11-19T08:06:43;12.10;99.90
17128;DHT22;8679;50.842;4.322;2023-11-19T08:09:10;12.10;99.90
17128;DHT22;8679;50.842;4.322;2023-11-19T08:11:43;12.20;99.90
17128;DHT22;8679;50.842;4.322;2023-11-19T08:14:09;12.20;99.90
17128;DHT22;8679;50.842;4.322;2023-11-19T08:16:35;12.20;99.90
17128;DHT22;8679;50.842;4.322;2023-11-19T08:19:02;12.20;99.90
17128;DHT22;8679;50.842;4.322;2023-11-19T08:21:28;12.20;99.90
17128;DHT22;8679;50.842;4.322;2023-11-19T08:23:54;12.20;99.90
17128;DHT22;8679;50.842;4.322;2023-11-19T08:26:20;12.30;99.90
17128;DHT22;8679;50.842;4.322;2023-11-19T08:28:45;12.40;99.90
17128;DHT22;8679;50.842;4.322;2023-11-19T08:31:11;12.50;99.90
17128;DHT22;8679;50.842;4.322;2023-11-19T08:33:37;12.50;99.90
17128;DHT22;8679;50.842;4.322;2023-11-19T08:36:03;12.50;99.90
17128;DHT22;8679;50.842;4.322;2023-11-19T08:38:29;12.50;99.90
17128;DHT22;8679;50.842;4.322;2023-11-19T08:40:55;12.60;99.90
17128;DHT22;8679;50.842;4.322;2023-11-19T08:43:28;12.60;99.90
17128;DHT22;8679;50.842;4.322;2023-11-19T08:45:54;12.40;99.90
17128;DHT22;8679;50.842;4.322;2023-11-19T08:48:20;12.30;99.90
17128;DHT22;8679;50.842;4.322;2023-11-19T08:50:45;12.20;99.90
17128;DHT22;8679;50.842;4.322;2023-11-19T08:53:11;12.20;99.90
17128;DHT22;8679;50.842;4.322;2023-11-19T08:55:37;12.20;99.90
17128;DHT22;8679;50.842;4.322;2023-11-19T08:58:05;12.20;99.90
17128;DHT22;8679;50.842;4.322;2023-11-19T09:00:30;12.30;99.90
17128;DHT22;8679;50.842;4.322;2023-11-19T09:02:59;12.50;99.90
17128;DHT22;8679;50.842;4.322;2023-11-19T09:05:24;12.40;99.90
17128;DHT22;8679;50.842;4.322;2023-11-19T09:07:50;12.60;99.90
17128;DHT22;8679;50.842;4.322;2023-11-19T09:10:16;12.70;99.90
17128;DHT22;8679;50.842;4.322;2023-11-19T09:12:41;12.80;99.90
17128;DHT22;8679;50.842;4.322;2023-11-19T09:15:07;12.80;99.90
17128;DHT22;8679;50.842;4.322;2023-11-19T09:17:36;12.80;99.90
17128;DHT22;8679;50.842;4.322;2023-11-19T09:20:01;12.80;99.90
17128;DHT22;8679;50.842;4.322;2023-11-19T09:22:27;12.80;99.90
17128;DHT22;8679;50.842;4.322;2023-11-19T09:24:53;12.80;99.90
17128;DHT22;8679;50.842;4.322;2023-11-19T09:27:18;12.80;99.90
17128;DHT22;8679;50.842;4.322;2023-11-19T09:29:44;12.90;99.90
17128;DHT22;8679;50.842;4.322;2023-11-19T09:32:12;12.90;99.90
17128;DHT22;8679;50.842;4.322;2023-11-19T09:34:37;12.80;99.90
17128;DHT22;8679;50.842;4.322;2023-11-19T09:37:05;12.80;99.90
17128;DHT22;8679;50.842;4.322;2023-11-19T09:39:31;12.70;99.90
17128;DHT22;8679;50.842;4.322;2023-11-19T09:41:56;12.90;99.90
17128;DHT22;8679;50.842;4.322;2023-11-19T09:44:24;12.90;99.90
17128;DHT22;8679;50.842;4.322;2023-11-19T09:46:50;13.00;99.90
17128;DHT22;8679;50.842;4.322;2023-11-19T09:49:19;13.10;99.90
17128;DHT22;8679;50.842;4.322;2023-11-19T09:51:46;13.20;99.90
17128;DHT22;8679;50.842;4.322;2023-11-19T09:54:12;13.00;99.90
17128;DHT22;8679;50.842;4.322;2023-11-19T09:56:39;13.10;99.90
17128;DHT22;8679;50.842;4.322;2023-11-19T09:59:05;13.10;99.90
17128;DHT22;8679;50.842;4.322;2023-11-19T10:01:31;13.10;99.90
17128;DHT22;8679;50.842;4.322;2023-11-19T10:03:57;13.10;99.90
17128;DHT22;8679;50.842;4.322;2023-11-19T10:06:25;13.10;99.90
17128;DHT22;8679;50.842;4.322;2023-11-19T10:08:52;13.10;99.90
17128;DHT22;8679;50.842;4.322;2023-11-19T10:11:17;13.20;99.90
17128;DHT22;8679;50.842;4.322;2023-11-19T10:13:44;13.20;99.90
17128;DHT22;8679;50.842;4.322;2023-11-19T10:16:13;13.10;99.90
17128;DHT22;8679;50.842;4.322;2023-11-19T10:18:49;13.20;99.90
17128;DHT22;8679;50.842;4.322;2023-11-19T10:21:18;13.30;99.90
17128;DHT22;8679;50.842;4.322;2023-11-19T10:23:51;13.30;99.90
17128;DHT22;8679;50.842;4.322;2023-11-19T10:26:17;13.40;99.90
17128;DHT22;8679;50.842;4.322;2023-11-19T10:28:43;13.50;99.90
17128;DHT22;8679;50.842;4.322;2023-11-19T10:31:13;13.60;99.90
17128;DHT22;8679;50.842;4.322;2023-11-19T10:33:41;13.60;99.90
17128;DHT22;8679;50.842;4.322;2023-11-19T10:36:07;13.60;99.90
17128;DHT22;8679;50.842;4.322;2023-11-19T10:38:33;13.60;99.90
17128;DHT22;8679;50.842;4.322;2023-11-19T10:40:59;13.60;99.90
17128;DHT22;8679;50.842;4.322;2023-11-19T10:43:25;13.70;99.90
17128;DHT22;8679;50.842;4.322;2023-11-19T10:45:51;13.60;99.90
17128;DHT22;8679;50.842;4.322;2023-11-19T10:48:18;13.60;99.90
17128;DHT22;8679;50.842;4.322;2023-11-19T10:50:46;13.50;99.90
17128;DHT22;8679;50.842;4.322;2023-11-19T10:53:15;13.50;99.90
17128;DHT22;8679;50.842;4.322;2023-11-19T10:55:41;13.60;99.90
17128;DHT22;8679;50.842;4.322;2023-11-19T10:58:09;13.80;99.90
17128;DHT22;8679;50.842;4.322;2023-11-19T11:01:01;13.90;99.90
17128;DHT22;8679;50.842;4.322;2023-11-19T11:03:35;13.90;99.90
17128;DHT22;8679;50.842;4.322;2023-11-19T11:06:03;14.00;99.90
17128;DHT22;8679;50.842;4.322;2023-11-19T11:08:30;14.10;99.90
17128;DHT22;8679;50.842;4.322;2023-11-19T11:10:56;14.00;99.90
17128;DHT22;8679;50.842;4.322;2023-11-19T11:13:24;13.80;99.90
17128;DHT22;8679;50.842;4.322;2023-11-19T11:15:53;13.70;99.90
17128;DHT22;8679;50.842;4.322;2023-11-19T11:18:21;13.60;99.90
17128;DHT22;8679;50.842;4.322;2023-11-19T11:20:49;13.50;99.90
17128;DHT22;8679;50.842;4.322;2023-11-19T11:29:48;13.30;99.90
17128;DHT22;8679;50.842;4.322;2023-11-19T11:35:15;13.30;99.90
17128;DHT22;8679;50.842;4.322;2023-11-19T11:37:49;13.30;99.90
17128;DHT22;8679;50.842;4.322;2023-11-19T11:40:16;13.50;99.90
17128;DHT22;8679;50.842;4.322;2023-11-19T11:42:44;13.80;99.90
17128;DHT22;8679;50.842;4.322;2023-11-19T11:45:19;14.10;99.90
17128;DHT22;8679;50.842;4.322;2023-11-19T11:50:20;14.50;99.90
17128;DHT22;8679;50.842;4.322;2023-11-19T11:55:35;15.00;99.90
17128;DHT22;8679;50.842;4.322;2023-11-19T11:58:02;15.10;99.90
17128;DHT22;8679;50.842;4.322;2023-11-19T12:00:32;15.00;99.90
17128;DHT22;8679;50.842;4.322;2023-11-19T12:03:05;15.00;99.90
17128;DHT22;8679;50.842;4.322;2023-11-19T12:05:31;14.80;99.90
17128;DHT22;8679;50.842;4.322;2023-11-19T12:08:04;14.70;99.90
17128;DHT22;8679;50.842;4.322;2023-11-19T12:13:05;14.40;99.90
17128;DHT22;8679;50.842;4.322;2023-11-19T12:15:32;14.20;99.90
17128;DHT22;8679;50.842;4.322;2023-11-19T12:17:58;14.10;99.90
17128;DHT22;8679;50.842;4.322;2023-11-19T12:20:26;14.00;99.90
17128;DHT22;8679;50.842;4.322;2023-11-19T12:22:52;13.90;99.90
17128;DHT22;8679;50.842;4.322;2023-11-19T12:25:19;13.80;99.90
17128;DHT22;8679;50.842;4.322;2023-11-19T12:27:52;13.60;99.90
17128;DHT22;8679;50.842;4.322;2023-11-19T12:30:25;13.50;99.90
17128;DHT22;8679;50.842;4.322;2023-11-19T12:32:51;13.50;99.90
17128;DHT22;8679;50.842;4.322;2023-11-19T12:35:18;13.40;99.90
17128;DHT22;8679;50.842;4.322;2023-11-19T12:37:46;13.50;99.90
17128;DHT22;8679;50.842;4.322;2023-11-19T12:42:54;13.30;99.90
17128;DHT22;8679;50.842;4.322;2023-11-19T12:45:20;13.30;99.90
17128;DHT22;8679;50.842;4.322;2023-11-19T12:47:49;13.40;99.90
17128;DHT22;8679;50.842;4.322;2023-11-19T12:50:17;13.40;99.90
17128;DHT22;8679;50.842;4.322;2023-11-19T12:52:58;13.50;99.90
17128;DHT22;8679;50.842;4.322;2023-11-19T12:55:33;13.50;99.90
17128;DHT22;8679;50.842;4.322;2023-11-19T12:57:58;13.50;99.90
17128;DHT22;8679;50.842;4.322;2023-11-19T13:00:25;13.50;99.90
17128;DHT22;8679;50.842;4.322;2023-11-19T13:02:55;13.60;99.90
17128;DHT22;8679;50.842;4.322;2023-11-19T13:05:30;13.60;99.90
17128;DHT22;8679;50.842;4.322;2023-11-19T13:08:09;13.70;99.90
17128;DHT22;8679;50.842;4.322;2023-11-19T13:10:51;13.70;99.90
17128;DHT22;8679;50.842;4.322;2023-11-19T13:13:19;13.70;99.90
17128;DHT22;8679;50.842;4.322;2023-11-19T13:15:45;13.70;99.90
17128;DHT22;8679;50.842;4.322;2023-11-19T13:18:11;13.80;99.90
17128;DHT22;8679;50.842;4.322;2023-11-19T13:20:38;13.90;99.90
17128;DHT22;8679;50.842;4.322;2023-11-19T13:23:06;13.90;99.90
17128;DHT22;8679;50.842;4.322;2023-11-19T13:25:32;13.80;99.90
17128;DHT22;8679;50.842;4.322;2023-11-19T13:27:58;13.70;99.90
17128;DHT22;8679;50.842;4.322;2023-11-19T13:30:25;13.60;99.90
17128;DHT22;8679;50.842;4.322;2023-11-19T13:32:51;13.60;99.90
17128;DHT22;8679;50.842;4.322;2023-11-19T13:35:18;13.50;99.90
17128;DHT22;8679;50.842;4.322;2023-11-19T13:37:47;13.50;99.90
17128;DHT22;8679;50.842;4.322;2023-11-19T13:40:13;13.50;99.90
17128;DHT22;8679;50.842;4.322;2023-11-19T13:42:44;13.50;99.90
17128;DHT22;8679;50.842;4.322;2023-11-19T13:45:14;13.40;99.90
17128;DHT22;8679;50.842;4.322;2023-11-19T13:47:44;13.50;99.90
17128;DHT22;8679;50.842;4.322;2023-11-19T13:50:13;13.40;99.90
17128;DHT22;8679;50.842;4.322;2023-11-19T13:52:41;13.50;99.90
17128;DHT22;8679;50.842;4.322;2023-11-19T13:55:08;13.40;99.90
17128;DHT22;8679;50.842;4.322;2023-11-19T13:57:35;13.40;99.90
17128;DHT22;8679;50.842;4.322;2023-11-19T14:00:05;13.40;99.90
17128;DHT22;8679;50.842;4.322;2023-11-19T14:02:46;13.40;99.90
17128;DHT22;8679;50.842;4.322;2023-11-19T14:05:16;13.40;99.90
17128;DHT22;8679;50.842;4.322;2023-11-19T14:07:45;13.40;99.90
17128;DHT22;8679;50.842;4.322;2023-11-19T14:10:14;13.50;99.90
17128;DHT22;8679;50.842;4.322;2023-11-19T14:12:41;13.40;99.90
17128;DHT22;8679;50.842;4.322;2023-11-19T14:15:08;13.40;99.90
17128;DHT22;8679;50.842;4.322;2023-11-19T14:17:43;13.40;99.90
17128;DHT22;8679;50.842;4.322;2023-11-19T14:20:09;13.40;99.90
17128;DHT22;8679;50.842;4.322;2023-11-19T14:22:39;13.40;99.90
17128;DHT22;8679;50.842;4.322;2023-11-19T14:25:06;13.40;99.90
17128;DHT22;8679;50.842;4.322;2023-11-19T14:27:36;13.40;99.90
17128;DHT22;8679;50.842;4.322;2023-11-19T14:30:07;13.30;99.90
17128;DHT22;8679;50.842;4.322;2023-11-19T14:32:33;13.10;99.90
17128;DHT22;8679;50.842;4.322;2023-11-19T14:35:00;12.90;99.90
17128;DHT22;8679;50.842;4.322;2023-11-19T14:37:26;12.80;99.90
17128;DHT22;8679;50.842;4.322;2023-11-19T14:39:51;12.90;99.90
17128;DHT22;8679;50.842;4.322;2023-11-19T14:42:17;12.90;99.90
17128;DHT22;8679;50.842;4.322;2023-11-19T14:44:43;12.90;99.90
17128;DHT22;8679;50.842;4.322;2023-11-19T14:47:09;12.90;99.90
17128;DHT22;8679;50.842;4.322;2023-11-19T14:49:35;12.90;99.90
17128;DHT22;8679;50.842;4.322;2023-11-19T14:52:05;13.00;99.90
17128;DHT22;8679;50.842;4.322;2023-11-19T14:54:31;13.10;99.90
17128;DHT22;8679;50.842;4.322;2023-11-19T14:56:57;13.10;99.90
17128;DHT22;8679;50.842;4.322;2023-11-19T14:59:24;13.10;99.90
17128;DHT22;8679;50.842;4.322;2023-11-19T15:01:52;13.10;99.90
17128;DHT22;8679;50.842;4.322;2023-11-19T15:04:18;13.10;99.90
17128;DHT22;8679;50.842;4.322;2023-11-19T15:06:43;13.10;99.90
17128;DHT22;8679;50.842;4.322;2023-11-19T15:09:12;13.10;99.90
17128;DHT22;8679;50.842;4.322;2023-11-19T15:11:46;13.00;99.90
17128;DHT22;8679;50.842;4.322;2023-11-19T15:14:13;13.10;99.90
17128;DHT22;8679;50.842;4.322;2023-11-19T15:16:45;13.10;99.90
17128;DHT22;8679;50.842;4.322;2023-11-19T15:19:11;13.10;99.90
17128;DHT22;8679;50.842;4.322;2023-11-19T15:21:38;13.00;99.90
17128;DHT22;8679;50.842;4.322;2023-11-19T15:24:05;13.10;99.90
17128;DHT22;8679;50.842;4.322;2023-11-19T15:26:33;13.20;99.90
17128;DHT22;8679;50.842;4.322;2023-11-19T15:28:59;13.20;99.90
17128;DHT22;8679;50.842;4.322;2023-11-19T15:31:25;13.20;99.90
17128;DHT22;8679;50.842;4.322;2023-11-19T15:33:51;13.20;99.90
17128;DHT22;8679;50.842;4.322;2023-11-19T15:36:17;13.20;99.90
17128;DHT22;8679;50.842;4.322;2023-11-19T15:38:43;13.30;99.90
17128;DHT22;8679;50.842;4.322;2023-11-19T15:41:09;13.10;99.90
17128;DHT22;8679;50.842;4.322;2023-11-19T15:43:34;13.30;99.90
17128;DHT22;8679;50.842;4.322;2023-11-19T15:46:00;13.30;99.90
17128;DHT22;8679;50.842;4.322;2023-11-19T15:48:26;13.40;99.90
17128;DHT22;8679;50.842;4.322;2023-11-19T15:50:52;13.40;99.90
17128;DHT22;8679;50.842;4.322;2023-11-19T15:53:18;13.30;99.90
17128;DHT22;8679;50.842;4.322;2023-11-19T15:55:44;13.40;99.90
17128;DHT22;8679;50.842;4.322;2023-11-19T15:58:11;13.40;99.90
17128;DHT22;8679;50.842;4.322;2023-11-19T16:00:36;13.30;99.90
17128;DHT22;8679;50.842;4.322;2023-11-19T16:03:02;13.20;99.90
17128;DHT22;8679;50.842;4.322;2023-11-19T16:05:28;13.10;99.90